sensor_id;sensor_type;location;lat;lon;timestamp;temperature;humidity
674;DHT22;319;48.764;9.174;2023-09-19T00:02:04;19.00;99.90
674;DHT22;319;48.764;9.174;2023-09-19T00:04:33;18.90;99.90
674;DHT22;319;48.764;9.174;2023-09-19T00:07:00;18.90;99.90
674;DHT22;319;48.764;9.174;2023-09-19T00:09:29;18.90;99.90
674;DHT22;319;48.764;9.174;2023-09-19T00:11:55;18.90;99.90
674;DHT22;319;48.764;9.174;2023-09-19T00:14:25;19.00;99.90
674;DHT22;319;48.764;9.174;2023-09-19T00:16:51;19.00;99.90
674;DHT22;319;48.764;9.174;2023-09-19T00:19:20;19.00;99.90
674;DHT22;319;48.764;9.174;2023-09-19T00:21:48;19.00;99.90
674;DHT22;319;48.764;9.174;2023-09-19T00:24:14;19.00;99.90
674;DHT22;319;48.764;9.174;2023-09-19T00:26:43;19.00;99.90
674;DHT22;319;48.764;9.174;2023-09-19T00:29:12;19.00;99.90
674;DHT22;319;48.764;9.174;2023-09-19T00:31:43;18.90;99.90
674;DHT22;319;48.764;9.174;2023-09-19T00:34:10;18.90;99.90
674;DHT22;319;48.764;9.174;2023-09-19T00:36:36;18.90;99.90
674;DHT22;319;48.764;9.174;2023-09-19T00:39:05;18.80;99.90
674;DHT22;319;48.764;9.174;2023-09-19T00:41:34;18.80;99.90
674;DHT22;319;48.764;9.174;2023-09-19T00:44:01;18.80;99.90
674;DHT22;319;48.764;9.174;2023-09-19T00:46:29;18.80;99.90
674;DHT22;319;48.764;9.174;2023-09-19T00:48:58;18.80;99.90
674;DHT22;319;48.764;9.174;2023-09-19T00:51:25;18.80;99.90
674;DHT22;319;48.764;9.174;2023-09-19T00:53:53;18.70;99.90
674;DHT22;319;48.764;9.174;2023-09-19T00:56:21;18.80;99.90
674;DHT22;319;48.764;9.174;2023-09-19T00:58:48;18.80;99.90
674;DHT22;319;48.764;9.174;2023-09-19T01:01:15;18.80;99.90
674;DHT22;319;48.764;9.174;2023-09-19T01:03:42;18.90;99.90
674;DHT22;319;48.764;9.174;2023-09-19T01:06:10;18.90;99.90
674;DHT22;319;48.764;9.174;2023-09-19T01:08:37;18.80;99.90
674;DHT22;319;48.764;9.174;2023-09-19T01:11:10;18.80;99.90
674;DHT22;319;48.764;9.174;2023-09-19T01:13:48;18.90;99.90
674;DHT22;319;48.764;9.174;2023-09-19T01:16:21;18.90;99.90
674;DHT22;319;48.764;9.174;2023-09-19T01:18:55;18.90;99.90
674;DHT22;319;48.764;9.174;2023-09-19T01:21:34;18.90;99.90
674;DHT22;319;48.764;9.174;2023-09-19T01:24:22;18.90;99.90
674;DHT22;319;48.764;9.174;2023-09-19T01:27:06;18.90;99.90
674;DHT22;319;48.764;9.174;2023-09-19T01:29:44;19.00;99.90
674;DHT22;319;48.764;9.174;2023-09-19T01:32:15;19.00;99.90
674;DHT22;319;48.764;9.174;2023-09-19T01:34:46;19.10;99.90
674;DHT22;319;48.764;9.174;2023-09-19T01:37:14;19.10;99.90
674;DHT22;319;48.764;9.174;2023-09-19T01:39:45;19.10;99.90
674;DHT22;319;48.764;9.174;2023-09-19T01:42:21;19.20;99.90
674;DHT22;319;48.764;9.174;2023-09-19T01:44:55;19.30;99.90
674;DHT22;319;48.764;9.174;2023-09-19T01:47:31;19.30;99.90
674;DHT22;319;48.764;9.174;2023-09-19T01:50:07;19.30;99.90
674;DHT22;319;48.764;9.174;2023-09-19T01:52:43;19.30;99.90
674;DHT22;319;48.764;9.174;2023-09-19T01:55:13;19.30;99.90
674;DHT22;319;48.764;9.174;2023-09-19T01:57:49;19.30;99.90
674;DHT22;319;48.764;9.174;2023-09-19T02:00:55;19.30;99.90
674;DHT22;319;48.764;9.174;2023-09-19T02:03:26;19.30;99.90
674;DHT22;319;48.764;9.174;2023-09-19T02:05:54;19.30;99.90
674;DHT22;319;48.764;9.174;2023-09-19T02:08:22;19.30;99.90
674;DHT22;319;48.764;9.174;2023-09-19T02:10:50;19.30;99.90
674;DHT22;319;48.764;9.174;2023-09-19T02:13:19;19.30;99.90
674;DHT22;319;48.764;9.174;2023-09-19T02:15:46;19.30;99.90
674;DHT22;319;48.764;9.174;2023-09-19T02:18:13;19.20;99.90
674;DHT22;319;48.764;9.174;2023-09-19T02:20:41;19.20;99.90
674;DHT22;319;48.764;9.174;2023-09-19T02:23:09;19.30;99.90
674;DHT22;319;48.764;9.174;2023-09-19T02:25:36;19.30;99.90
674;DHT22;319;48.764;9.174;2023-09-19T02:28:04;19.30;99.90
674;DHT22;319;48.764;9.174;2023-09-19T02:30:31;19.20;99.90
674;DHT22;319;48.764;9.174;2023-09-19T02:32:58;19.20;99.90
674;DHT22;319;48.764;9.174;2023-09-19T02:35:27;19.20;99.90
674;DHT22;319;48.764;9.174;2023-09-19T02:37:55;19.10;99.90
674;DHT22;319;48.764;9.174;2023-09-19T02:40:22;19.10;99.90
674;DHT22;319;48.764;9.174;2023-09-19T02:42:54;19.10;99.90
674;DHT22;319;48.764;9.174;2023-09-19T02:45:21;19.00;99.90
674;DHT22;319;48.764;9.174;2023-09-19T02:47:48;19.00;99.90
674;DHT22;319;48.764;9.174;2023-09-19T02:50:15;18.90;99.90
674;DHT22;319;48.764;9.174;2023-09-19T02:52:44;18.80;99.90
674;DHT22;319;48.764;9.174;2023-09-19T02:55:14;18.90;99.90
674;DHT22;319;48.764;9.174;2023-09-19T02:57:45;18.80;99.90
674;DHT22;319;48.764;9.174;2023-09-19T03:00:13;18.80;99.90
674;DHT22;319;48.764;9.174;2023-09-19T03:02:40;18.80;99.90
674;DHT22;319;48.764;9.174;2023-09-19T03:05:07;18.80;99.90
674;DHT22;319;48.764;9.174;2023-09-19T03:07:37;18.90;99.90
674;DHT22;319;48.764;9.174;2023-09-19T03:10:04;18.90;99.90
674;DHT22;319;48.764;9.174;2023-09-19T03:12:33;19.00;99.90
674;DHT22;319;48.764;9.174;2023-09-19T03:15:00;19.00;99.90
674;DHT22;319;48.764;9.174;2023-09-19T03:17:27;19.00;99.90
674;DHT22;319;48.764;9.174;2023-09-19T03:19:53;19.00;99.90
674;DHT22;319;48.764;9.174;2023-09-19T03:22:20;19.00;99.90
674;DHT22;319;48.764;9.174;2023-09-19T03:24:47;19.00;99.90
674;DHT22;319;48.764;9.174;2023-09-19T03:27:14;19.00;99.90
674;DHT22;319;48.764;9.174;2023-09-19T03:29:42;18.90;99.90
674;DHT22;319;48.764;9.174;2023-09-19T03:32:09;18.80;99.90
674;DHT22;319;48.764;9.174;2023-09-19T03:34:37;18.80;99.90
674;DHT22;319;48.764;9.174;2023-09-19T03:37:08;18.90;99.90
674;DHT22;319;48.764;9.174;2023-09-19T03:39:35;19.00;99.90
674;DHT22;319;48.764;9.174;2023-09-19T03:42:00;19.00;99.90
674;DHT22;319;48.764;9.174;2023-09-19T03:44:28;19.00;99.90
674;DHT22;319;48.764;9.174;2023-09-19T03:46:56;19.00;99.90
674;DHT22;319;48.764;9.174;2023-09-19T03:49:23;19.00;99.90
674;DHT22;319;48.764;9.174;2023-09-19T03:51:50;19.00;99.90
674;DHT22;319;48.764;9.174;2023-09-19T03:54:17;19.10;99.90
674;DHT22;319;48.764;9.174;2023-09-19T03:56:45;19.00;99.90
674;DHT22;319;48.764;9.174;2023-09-19T03:59:11;19.00;99.90
674;DHT22;319;48.764;9.174;2023-09-19T04:01:41;19.10;99.90
674;DHT22;319;48.764;9.174;2023-09-19T04:04:10;19.10;99.90
674;DHT22;319;48.764;9.174;2023-09-19T04:06:38;19.10;99.90
674;DHT22;319;48.764;9.174;2023-09-19T04:09:05;19.00;99.90
674;DHT22;319;48.764;9.174;2023-09-19T04:11:32;19.00;99.90
674;DHT22;319;48.764;9.174;2023-09-19T04:14:02;19.00;99.90
674;DHT22;319;48.764;9.174;2023-09-19T04:16:29;19.00;99.90
674;DHT22;319;48.764;9.174;2023-09-19T04:18:56;19.00;99.90
674;DHT22;319;48.764;9.174;2023-09-19T04:21:24;19.00;99.90
674;DHT22;319;48.764;9.174;2023-09-19T04:23:51;19.00;99.90
674;DHT22;319;48.764;9.174;2023-09-19T04:26:17;19.00;99.90
674;DHT22;319;48.764;9.174;2023-09-19T04:28:44;19.00;99.90
674;DHT22;319;48.764;9.174;2023-09-19T04:31:11;19.00;99.90
674;DHT22;319;48.764;9.174;2023-09-19T04:33:39;19.00;99.90
674;DHT22;319;48.764;9.174;2023-09-19T04:36:06;19.00;99.90
674;DHT22;319;48.764;9.174;2023-09-19T04:38:35;19.00;99.90
674;DHT22;319;48.764;9.174;2023-09-19T04:41:02;18.90;99.90
674;DHT22;319;48.764;9.174;2023-09-19T04:43:29;18.90;99.90
674;DHT22;319;48.764;9.174;2023-09-19T04:45:56;18.80;99.90
674;DHT22;319;48.764;9.174;2023-09-19T04:48:25;18.80;99.90
674;DHT22;319;48.764;9.174;2023-09-19T04:50:54;18.90;99.90
674;DHT22;319;48.764;9.174;2023-09-19T04:53:21;18.80;99.90
674;DHT22;319;48.764;9.174;2023-09-19T04:55:51;18.80;99.90
674;DHT22;319;48.764;9.174;2023-09-19T04:58:21;18.80;99.90
674;DHT22;319;48.764;9.174;2023-09-19T05:00:48;18.70;99.90
674;DHT22;319;48.764;9.174;2023-09-19T05:03:17;18.70;99.90
674;DHT22;319;48.764;9.174;2023-09-19T05:05:46;18.60;99.90
674;DHT22;319;48.764;9.174;2023-09-19T05:08:13;18.50;99.90
674;DHT22;319;48.764;9.174;2023-09-19T05:10:40;18.50;99.90
674;DHT22;319;48.764;9.174;2023-09-19T05:13:08;18.40;99.90
674;DHT22;319;48.764;9.174;2023-09-19T05:15:35;18.40;99.90
674;DHT22;319;48.764;9.174;2023-09-19T05:18:03;18.30;99.90
674;DHT22;319;48.764;9.174;2023-09-19T05:20:31;18.20;99.90
674;DHT22;319;48.764;9.174;2023-09-19T05:23:00;18.20;99.90
674;DHT22;319;48.764;9.174;2023-09-19T05:25:28;18.10;99.90
674;DHT22;319;48.764;9.174;2023-09-19T05:27:57;18.10;99.90
674;DHT22;319;48.764;9.174;2023-09-19T05:30:25;18.00;99.90
674;DHT22;319;48.764;9.174;2023-09-19T05:32:54;18.00;99.90
674;DHT22;319;48.764;9.174;2023-09-19T05:35:22;18.00;99.90
674;DHT22;319;48.764;9.174;2023-09-19T05:37:50;18.00;99.90
674;DHT22;319;48.764;9.174;2023-09-19T05:40:17;18.00;99.90
674;DHT22;319;48.764;9.174;2023-09-19T05:42:44;18.00;99.90
674;DHT22;319;48.764;9.174;2023-09-19T05:45:14;18.00;99.90
674;DHT22;319;48.764;9.174;2023-09-19T05:47:48;18.10;99.90
674;DHT22;319;48.764;9.174;2023-09-19T05:50:16;18.20;99.90
674;DHT22;319;48.764;9.174;2023-09-19T05:52:52;18.20;99.90
674;DHT22;319;48.764;9.174;2023-09-19T05:55:19;18.30;99.90
674;DHT22;319;48.764;9.174;2023-09-19T05:57:49;18.30;99.90
674;DHT22;319;48.764;9.174;2023-09-19T06:00:19;18.20;99.90
674;DHT22;319;48.764;9.174;2023-09-19T06:02:55;18.00;99.90
674;DHT22;319;48.764;9.174;2023-09-19T06:05:23;18.00;99.90
674;DHT22;319;48.764;9.174;2023-09-19T06:07:52;17.90;99.90
674;DHT22;319;48.764;9.174;2023-09-19T06:10:19;17.90;99.90
674;DHT22;319;48.764;9.174;2023-09-19T06:12:48;17.90;99.90
674;DHT22;319;48.764;9.174;2023-09-19T06:15:15;17.90;99.90
674;DHT22;319;48.764;9.174;2023-09-19T06:17:47;18.00;99.90
674;DHT22;319;48.764;9.174;2023-09-19T06:20:15;18.00;99.90
674;DHT22;319;48.764;9.174;2023-09-19T06:22:44;18.10;99.90
674;DHT22;319;48.764;9.174;2023-09-19T06:25:12;18.10;99.90
674;DHT22;319;48.764;9.174;2023-09-19T06:27:44;18.10;99.90
674;DHT22;319;48.764;9.174;2023-09-19T06:30:11;18.00;99.90
674;DHT22;319;48.764;9.174;2023-09-19T06:32:38;18.00;99.90
674;DHT22;319;48.764;9.174;2023-09-19T06:35:06;18.00;99.90
674;DHT22;319;48.764;9.174;2023-09-19T06:37:37;17.90;99.90
674;DHT22;319;48.764;9.174;2023-09-19T06:40:06;17.90;99.90
674;DHT22;319;48.764;9.174;2023-09-19T06:42:34;17.90;99.90
674;DHT22;319;48.764;9.174;2023-09-19T06:45:03;18.10;99.90
674;DHT22;319;48.764;9.174;2023-09-19T06:47:30;18.10;99.90
674;DHT22;319;48.764;9.174;2023-09-19T06:49:56;18.20;99.90
674;DHT22;319;48.764;9.174;2023-09-19T06:52:23;18.30;99.90
674;DHT22;319;48.764;9.174;2023-09-19T06:54:54;18.30;99.90
674;DHT22;319;48.764;9.174;2023-09-19T06:57:22;18.40;99.90
674;DHT22;319;48.764;9.174;2023-09-19T06:59:50;18.60;99.90
674;DHT22;319;48.764;9.174;2023-09-19T07:02:16;18.70;99.90
674;DHT22;319;48.764;9.174;2023-09-19T07:04:43;18.90;99.90
674;DHT22;319;48.764;9.174;2023-09-19T07:07:10;19.10;99.90
674;DHT22;319;48.764;9.174;2023-09-19T07:09:39;19.40;99.90
674;DHT22;319;48.764;9.174;2023-09-19T07:12:09;19.90;99.90
674;DHT22;319;48.764;9.174;2023-09-19T07:14:37;20.40;99.90
674;DHT22;319;48.764;9.174;2023-09-19T07:17:04;20.60;99.90
674;DHT22;319;48.764;9.174;2023-09-19T07:19:30;20.90;99.90
674;DHT22;319;48.764;9.174;2023-09-19T07:21:57;21.00;99.90
674;DHT22;319;48.764;9.174;2023-09-19T07:24:28;21.10;99.90
674;DHT22;319;48.764;9.174;2023-09-19T07:26:54;21.10;99.90
674;DHT22;319;48.764;9.174;2023-09-19T07:29:23;21.00;99.90
674;DHT22;319;48.764;9.174;2023-09-19T07:31:51;21.00;99.90
674;DHT22;319;48.764;9.174;2023-09-19T07:34:18;21.10;99.90
674;DHT22;319;48.764;9.174;2023-09-19T07:36:46;21.20;99.90
674;DHT22;319;48.764;9.174;2023-09-19T07:39:13;21.30;99.90
674;DHT22;319;48.764;9.174;2023-09-19T07:41:40;21.60;99.90
674;DHT22;319;48.764;9.174;2023-09-19T07:44:07;21.80;99.90
674;DHT22;319;48.764;9.174;2023-09-19T07:46:36;21.90;99.90
674;DHT22;319;48.764;9.174;2023-09-19T07:49:04;22.40;99.60
674;DHT22;319;48.764;9.174;2023-09-19T07:51:30;22.90;98.40
674;DHT22;319;48.764;9.174;2023-09-19T07:53:58;23.40;97.70
674;DHT22;319;48.764;9.174;2023-09-19T07:56:25;24.00;96.80
674;DHT22;319;48.764;9.174;2023-09-19T07:58:53;24.50;96.20
674;DHT22;319;48.764;9.174;2023-09-19T08:01:19;24.70;95.30
674;DHT22;319;48.764;9.174;2023-09-19T08:03:50;24.50;95.00
674;DHT22;319;48.764;9.174;2023-09-19T08:06:17;24.50;94.70
674;DHT22;319;48.764;9.174;2023-09-19T08:08:44;24.80;94.60
674;DHT22;319;48.764;9.174;2023-09-19T08:11:11;25.20;94.10
674;DHT22;319;48.764;9.174;2023-09-19T08:13:38;25.70;93.60
674;DHT22;319;48.764;9.174;2023-09-19T08:16:09;26.20;91.70
674;DHT22;319;48.764;9.174;2023-09-19T08:18:36;26.70;91.20
674;DHT22;319;48.764;9.174;2023-09-19T08:21:07;26.60;90.40
674;DHT22;319;48.764;9.174;2023-09-19T08:23:36;26.50;87.40
674;DHT22;319;48.764;9.174;2023-09-19T08:26:04;26.50;88.70
674;DHT22;319;48.764;9.174;2023-09-19T08:28:32;26.60;88.50
674;DHT22;319;48.764;9.174;2023-09-19T08:31:02;26.80;88.80
674;DHT22;319;48.764;9.174;2023-09-19T08:33:31;26.90;88.70
674;DHT22;319;48.764;9.174;2023-09-19T08:35:57;26.60;89.30
674;DHT22;319;48.764;9.174;2023-09-19T08:38:26;26.50;89.10
674;DHT22;319;48.764;9.174;2023-09-19T08:40:57;26.20;90.10
674;DHT22;319;48.764;9.174;2023-09-19T08:43:24;25.90;89.70
674;DHT22;319;48.764;9.174;2023-09-19T08:45:54;25.90;90.30
674;DHT22;319;48.764;9.174;2023-09-19T08:48:26;26.00;90.00
674;DHT22;319;48.764;9.174;2023-09-19T08:50:56;25.90;89.80
674;DHT22;319;48.764;9.174;2023-09-19T08:53:34;25.80;89.60
674;DHT22;319;48.764;9.174;2023-09-19T08:56:03;25.90;90.10
674;DHT22;319;48.764;9.174;2023-09-19T08:58:43;25.90;89.80
674;DHT22;319;48.764;9.174;2023-09-19T09:01:14;25.90;89.50
674;DHT22;319;48.764;9.174;2023-09-19T09:03:43;25.70;88.70
674;DHT22;319;48.764;9.174;2023-09-19T09:06:14;26.00;88.80
674;DHT22;319;48.764;9.174;2023-09-19T09:08:43;26.30;86.70
674;DHT22;319;48.764;9.174;2023-09-19T09:11:11;26.50;86.20
674;DHT22;319;48.764;9.174;2023-09-19T09:13:38;26.30;84.70
674;DHT22;319;48.764;9.174;2023-09-19T09:16:06;26.00;84.40
674;DHT22;319;48.764;9.174;2023-09-19T09:18:33;25.70;85.70
674;DHT22;319;48.764;9.174;2023-09-19T09:21:00;25.50;86.00
674;DHT22;319;48.764;9.174;2023-09-19T09:23:30;24.90;86.00
674;DHT22;319;48.764;9.174;2023-09-19T09:25:59;24.40;87.50
674;DHT22;319;48.764;9.174;2023-09-19T09:28:29;24.20;88.70
674;DHT22;319;48.764;9.174;2023-09-19T09:30:58;23.80;89.20
674;DHT22;319;48.764;9.174;2023-09-19T09:33:25;23.60;90.40
674;DHT22;319;48.764;9.174;2023-09-19T09:35:55;23.50;90.50
674;DHT22;319;48.764;9.174;2023-09-19T09:38:24;23.40;91.10
674;DHT22;319;48.764;9.174;2023-09-19T09:40:59;23.40;90.40
674;DHT22;319;48.764;9.174;2023-09-19T09:43:32;23.50;88.90
674;DHT22;319;48.764;9.174;2023-09-19T09:46:11;23.60;89.40
674;DHT22;319;48.764;9.174;2023-09-19T09:48:58;23.60;89.00
674;DHT22;319;48.764;9.174;2023-09-19T09:51:48;23.50;87.70
674;DHT22;319;48.764;9.174;2023-09-19T09:54:23;23.30;87.40
674;DHT22;319;48.764;9.174;2023-09-19T09:56:55;23.40;88.30
674;DHT22;319;48.764;9.174;2023-09-19T09:59:49;23.40;87.00
674;DHT22;319;48.764;9.174;2023-09-19T10:02:17;23.20;86.70
674;DHT22;319;48.764;9.174;2023-09-19T10:04:51;23.20;87.00
674;DHT22;319;48.764;9.174;2023-09-19T10:07:25;23.10;86.50
674;DHT22;319;48.764;9.174;2023-09-19T10:09:58;23.00;87.20
674;DHT22;319;48.764;9.174;2023-09-19T10:12:31;23.00;87.80
674;DHT22;319;48.764;9.174;2023-09-19T10:15:00;23.10;87.40
674;DHT22;319;48.764;9.174;2023-09-19T10:17:29;23.20;86.80
674;DHT22;319;48.764;9.174;2023-09-19T10:19:58;23.20;86.00
674;DHT22;319;48.764;9.174;2023-09-19T10:22:32;23.40;86.20
674;DHT22;319;48.764;9.174;2023-09-19T10:25:01;23.40;85.50
674;DHT22;319;48.764;9.174;2023-09-19T10:27:30;23.40;85.20
674;DHT22;319;48.764;9.174;2023-09-19T10:30:05;23.20;85.70
674;DHT22;319;48.764;9.174;2023-09-19T10:32:35;23.20;86.20
674;DHT22;319;48.764;9.174;2023-09-19T10:35:02;23.20;86.40
674;DHT22;319;48.764;9.174;2023-09-19T10:37:32;23.20;86.20
674;DHT22;319;48.764;9.174;2023-09-19T10:40:00;23.10;86.60
674;DHT22;319;48.764;9.174;2023-09-19T10:42:27;23.20;86.40
674;DHT22;319;48.764;9.174;2023-09-19T10:44:57;23.20;85.80
674;DHT22;319;48.764;9.174;2023-09-19T10:47:25;23.50;85.30
674;DHT22;319;48.764;9.174;2023-09-19T10:49:52;23.50;84.40
674;DHT22;319;48.764;9.174;2023-09-19T10:52:23;23.20;84.70
674;DHT22;319;48.764;9.174;2023-09-19T10:54:52;23.00;84.80
674;DHT22;319;48.764;9.174;2023-09-19T10:57:23;23.00;84.90
674;DHT22;319;48.764;9.174;2023-09-19T11:00:05;23.00;85.60
674;DHT22;319;48.764;9.174;2023-09-19T11:03:19;22.90;85.10
674;DHT22;319;48.764;9.174;2023-09-19T11:06:02;22.90;85.90
674;DHT22;319;48.764;9.174;2023-09-19T11:09:00;23.00;86.60
674;DHT22;319;48.764;9.174;2023-09-19T11:11:48;23.10;85.70
674;DHT22;319;48.764;9.174;2023-09-19T11:14:38;23.10;84.70
674;DHT22;319;48.764;9.174;2023-09-19T11:17:31;23.20;84.60
674;DHT22;319;48.764;9.174;2023-09-19T11:20:22;23.20;85.00
674;DHT22;319;48.764;9.174;2023-09-19T11:23:21;23.40;84.00
674;DHT22;319;48.764;9.174;2023-09-19T11:25:54;23.40;83.80
674;DHT22;319;48.764;9.174;2023-09-19T11:28:31;23.40;83.30
674;DHT22;319;48.764;9.174;2023-09-19T11:30:57;23.40;83.70
674;DHT22;319;48.764;9.174;2023-09-19T11:33:27;23.30;82.90
674;DHT22;319;48.764;9.174;2023-09-19T11:35:59;23.00;83.30
674;DHT22;319;48.764;9.174;2023-09-19T11:39:00;23.00;83.30
674;DHT22;319;48.764;9.174;2023-09-19T11:41:38;23.00;81.40
674;DHT22;319;48.764;9.174;2023-09-19T11:44:33;23.00;81.60
674;DHT22;319;48.764;9.174;2023-09-19T11:47:02;23.00;82.10
674;DHT22;319;48.764;9.174;2023-09-19T11:49:32;23.00;81.20
674;DHT22;319;48.764;9.174;2023-09-19T11:52:00;23.10;81.00
674;DHT22;319;48.764;9.174;2023-09-19T11:54:31;23.20;81.30
674;DHT22;319;48.764;9.174;2023-09-19T11:56:59;23.30;81.10
674;DHT22;319;48.764;9.174;2023-09-19T11:59:27;23.40;80.60
674;DHT22;319;48.764;9.174;2023-09-19T12:01:56;23.50;80.90
674;DHT22;319;48.764;9.174;2023-09-19T12:04:35;23.50;80.50
674;DHT22;319;48.764;9.174;2023-09-19T12:07:04;23.40;81.00
674;DHT22;319;48.764;9.174;2023-09-19T12:09:37;23.50;81.10
674;DHT22;319;48.764;9.174;2023-09-19T12:12:04;23.60;80.40
674;DHT22;319;48.764;9.174;2023-09-19T12:14:31;23.80;79.70
674;DHT22;319;48.764;9.174;2023-09-19T12:16:58;23.90;79.20
674;DHT22;319;48.764;9.174;2023-09-19T12:19:27;23.90;79.10
674;DHT22;319;48.764;9.174;2023-09-19T12:21:57;23.90;79.00
674;DHT22;319;48.764;9.174;2023-09-19T12:24:25;24.00;79.50
674;DHT22;319;48.764;9.174;2023-09-19T12:26:59;24.10;78.80
674;DHT22;319;48.764;9.174;2023-09-19T12:29:30;24.20;78.20
674;DHT22;319;48.764;9.174;2023-09-19T12:31:58;24.30;78.70
674;DHT22;319;48.764;9.174;2023-09-19T12:34:26;24.30;78.10
674;DHT22;319;48.764;9.174;2023-09-19T12:37:08;24.40;78.00
674;DHT22;319;48.764;9.174;2023-09-19T12:39:43;24.50;77.50
674;DHT22;319;48.764;9.174;2023-09-19T12:42:15;24.50;76.90
674;DHT22;319;48.764;9.174;2023-09-19T12:44:44;24.50;77.40
674;DHT22;319;48.764;9.174;2023-09-19T12:47:14;24.70;78.00
674;DHT22;319;48.764;9.174;2023-09-19T12:50:08;24.60;77.50
674;DHT22;319;48.764;9.174;2023-09-19T12:52:41;24.50;77.90
674;DHT22;319;48.764;9.174;2023-09-19T12:55:16;24.50;78.00
674;DHT22;319;48.764;9.174;2023-09-19T12:58:03;24.50;77.70
674;DHT22;319;48.764;9.174;2023-09-19T13:00:35;24.30;76.40
674;DHT22;319;48.764;9.174;2023-09-19T13:03:25;24.40;76.60
674;DHT22;319;48.764;9.174;2023-09-19T13:05:54;24.50;77.00
674;DHT22;319;48.764;9.174;2023-09-19T13:08:24;24.50;77.10
674;DHT22;319;48.764;9.174;2023-09-19T13:11:02;24.50;76.40
674;DHT22;319;48.764;9.174;2023-09-19T13:13:32;24.50;76.50
674;DHT22;319;48.764;9.174;2023-09-19T13:16:00;24.40;77.00
674;DHT22;319;48.764;9.174;2023-09-19T13:18:28;24.40;76.80
674;DHT22;319;48.764;9.174;2023-09-19T13:21:08;24.50;78.00
674;DHT22;319;48.764;9.174;2023-09-19T13:23:38;24.50;77.40
674;DHT22;319;48.764;9.174;2023-09-19T13:26:05;24.70;77.50
674;DHT22;319;48.764;9.174;2023-09-19T13:28:33;24.80;77.10
674;DHT22;319;48.764;9.174;2023-09-19T13:31:01;24.90;76.20
674;DHT22;319;48.764;9.174;2023-09-19T13:33:28;24.90;75.40
674;DHT22;319;48.764;9.174;2023-09-19T13:35:55;25.00;75.60
674;DHT22;319;48.764;9.174;2023-09-19T13:38:22;24.80;75.80
674;DHT22;319;48.764;9.174;2023-09-19T13:40:50;24.60;76.20
674;DHT22;319;48.764;9.174;2023-09-19T13:43:18;24.50;75.40
674;DHT22;319;48.764;9.174;2023-09-19T13:45:45;24.50;75.90
674;DHT22;319;48.764;9.174;2023-09-19T13:48:11;24.60;76.30
674;DHT22;319;48.764;9.174;2023-09-19T13:50:38;24.70;77.40
674;DHT22;319;48.764;9.174;2023-09-19T13:53:07;24.70;76.30
674;DHT22;319;48.764;9.174;2023-09-19T13:55:34;24.60;74.50
674;DHT22;319;48.764;9.174;2023-09-19T13:58:03;24.50;74.70
674;DHT22;319;48.764;9.174;2023-09-19T14:00:32;24.40;74.50
674;DHT22;319;48.764;9.174;2023-09-19T14:02:59;24.30;74.70
674;DHT22;319;48.764;9.174;2023-09-19T14:05:27;24.40;74.90
674;DHT22;319;48.764;9.174;2023-09-19T14:07:55;24.50;75.50
674;DHT22;319;48.764;9.174;2023-09-19T14:10:22;24.40;76.00
674;DHT22;319;48.764;9.174;2023-09-19T14:12:49;24.30;76.10
674;DHT22;319;48.764;9.174;2023-09-19T14:15:17;24.30;76.00
674;DHT22;319;48.764;9.174;2023-09-19T14:17:44;24.40;75.80
674;DHT22;319;48.764;9.174;2023-09-19T14:20:11;24.40;76.00
674;DHT22;319;48.764;9.174;2023-09-19T14:22:38;24.40;75.50
674;DHT22;319;48.764;9.174;2023-09-19T14:25:05;24.30;75.00
674;DHT22;319;48.764;9.174;2023-09-19T14:27:32;24.30;72.70
674;DHT22;319;48.764;9.174;2023-09-19T14:29:59;24.40;72.70
674;DHT22;319;48.764;9.174;2023-09-19T14:32:27;24.40;72.40
674;DHT22;319;48.764;9.174;2023-09-19T14:34:54;24.40;71.30
674;DHT22;319;48.764;9.174;2023-09-19T14:37:21;24.30;71.80
674;DHT22;319;48.764;9.174;2023-09-19T14:39:47;24.20;72.70
674;DHT22;319;48.764;9.174;2023-09-19T14:42:14;24.20;72.50
674;DHT22;319;48.764;9.174;2023-09-19T14:44:43;24.20;72.20
674;DHT22;319;48.764;9.174;2023-09-19T14:47:10;24.30;72.30
674;DHT22;319;48.764;9.174;2023-09-19T14:49:40;24.20;71.30
674;DHT22;319;48.764;9.174;2023-09-19T14:52:08;24.30;71.60
674;DHT22;319;48.764;9.174;2023-09-19T14:54:35;24.30;72.20
674;DHT22;319;48.764;9.174;2023-09-19T14:57:03;24.30;72.00
674;DHT22;319;48.764;9.174;2023-09-19T14:59:30;24.40;71.50
674;DHT22;319;48.764;9.174;2023-09-19T15:01:58;24.50;71.10
674;DHT22;319;48.764;9.174;2023-09-19T15:04:24;24.50;71.00
674;DHT22;319;48.764;9.174;2023-09-19T15:06:52;24.40;70.80
674;DHT22;319;48.764;9.174;2023-09-19T15:09:20;24.30;71.10
674;DHT22;319;48.764;9.174;2023-09-19T15:11:47;24.20;71.00
674;DHT22;319;48.764;9.174;2023-09-19T15:14:14;24.10;71.60
674;DHT22;319;48.764;9.174;2023-09-19T15:16:41;24.10;72.10
674;DHT22;319;48.764;9.174;2023-09-19T15:19:09;24.20;72.50
674;DHT22;319;48.764;9.174;2023-09-19T15:21:36;24.20;72.00
674;DHT22;319;48.764;9.174;2023-09-19T15:24:06;24.20;72.00
674;DHT22;319;48.764;9.174;2023-09-19T15:26:35;24.20;71.90
674;DHT22;319;48.764;9.174;2023-09-19T15:29:04;24.10;72.10
674;DHT22;319;48.764;9.174;2023-09-19T15:31:31;24.20;72.10
674;DHT22;319;48.764;9.174;2023-09-19T15:33:58;24.20;72.00
674;DHT22;319;48.764;9.174;2023-09-19T15:36:26;24.30;72.20
674;DHT22;319;48.764;9.174;2023-09-19T15:38:57;24.30;72.40
674;DHT22;319;48.764;9.174;2023-09-19T15:41:27;24.30;72.10
674;DHT22;319;48.764;9.174;2023-09-19T15:43:54;24.30;72.10
674;DHT22;319;48.764;9.174;2023-09-19T15:46:21;24.20;72.10
674;DHT22;319;48.764;9.174;2023-09-19T15:48:48;24.20;72.00
674;DHT22;319;48.764;9.174;2023-09-19T15:51:15;24.10;72.70
674;DHT22;319;48.764;9.174;2023-09-19T15:53:45;24.00;72.30
674;DHT22;319;48.764;9.174;2023-09-19T15:56:12;23.80;72.70
674;DHT22;319;48.764;9.174;2023-09-19T15:58:41;23.80;73.10
674;DHT22;319;48.764;9.174;2023-09-19T16:01:10;23.80;73.70
674;DHT22;319;48.764;9.174;2023-09-19T16:03:37;23.80;73.90
674;DHT22;319;48.764;9.174;2023-09-19T16:06:08;23.80;73.90
674;DHT22;319;48.764;9.174;2023-09-19T16:08:37;23.80;74.00
674;DHT22;319;48.764;9.174;2023-09-19T16:11:05;23.90;74.00
674;DHT22;319;48.764;9.174;2023-09-19T16:13:32;23.90;73.70
674;DHT22;319;48.764;9.174;2023-09-19T16:16:02;23.90;73.70
674;DHT22;319;48.764;9.174;2023-09-19T16:18:29;23.90;73.40
674;DHT22;319;48.764;9.174;2023-09-19T16:21:01;23.80;73.70
674;DHT22;319;48.764;9.174;2023-09-19T16:23:28;23.80;74.00
674;DHT22;319;48.764;9.174;2023-09-19T16:26:03;23.80;73.80
674;DHT22;319;48.764;9.174;2023-09-19T16:28:31;23.80;74.00
674;DHT22;319;48.764;9.174;2023-09-19T16:31:01;23.80;74.20
674;DHT22;319;48.764;9.174;2023-09-19T16:33:28;23.80;74.40
674;DHT22;319;48.764;9.174;2023-09-19T16:35:55;23.70;74.50
674;DHT22;319;48.764;9.174;2023-09-19T16:38:23;23.70;75.30
674;DHT22;319;48.764;9.174;2023-09-19T16:40:54;23.70;75.30
674;DHT22;319;48.764;9.174;2023-09-19T16:43:24;23.70;75.50
674;DHT22;319;48.764;9.174;2023-09-19T16:45:54;23.60;75.60
674;DHT22;319;48.764;9.174;2023-09-19T16:48:22;23.60;75.80
674;DHT22;319;48.764;9.174;2023-09-19T16:50:49;23.60;76.20
674;DHT22;319;48.764;9.174;2023-09-19T16:53:16;23.60;76.30